createdAt,value
2018-11-27T00:00:22.994Z,44.97
2018-11-27T00:02:52.822Z,44.23
2018-11-27T00:05:21.145Z,44.33
2018-11-27T00:07:49.393Z,38.93
2018-11-27T00:10:17.701Z,44.70
2018-11-27T00:12:46.764Z,45.33
2018-11-27T00:15:15.704Z,47.40
2018-11-27T00:17:43.966Z,48.67
2018-11-27T00:20:13.662Z,44.77
2018-11-27T00:22:42.038Z,39.47
2018-11-27T00:25:14.407Z,40.63
2018-11-27T00:27:42.751Z,43.77
2018-11-27T00:30:13.524Z,40.07
2018-11-27T00:32:42.272Z,42.60
2018-11-27T00:35:13.481Z,40.50
2018-11-27T00:37:41.790Z,38.10
2018-11-27T00:40:12.278Z,42.60
2018-11-27T00:42:41.150Z,38.63
2018-11-27T00:45:11.845Z,40.33
2018-11-27T00:47:40.223Z,42.03
2018-11-27T00:50:11.109Z,43.07
2018-11-27T00:52:39.444Z,40.13
2018-11-27T00:55:09.481Z,37.63
2018-11-27T00:57:38.229Z,36.97
2018-11-27T01:00:11.376Z,37.33
2018-11-27T01:02:39.944Z,35.30
2018-11-27T01:05:10.110Z,37.17
2018-11-27T01:07:38.551Z,34.77
2018-11-27T01:10:11.487Z,30.73
2018-11-27T01:12:39.866Z,32.67
2018-11-27T01:15:09.615Z,35.57
2018-11-27T01:17:38.995Z,32.20
2018-11-27T01:20:15.629Z,33.87
2018-11-27T01:22:43.943Z,32.70
2018-11-27T01:25:13.044Z,34.77
2018-11-27T01:27:42.485Z,31.07
2018-11-27T01:30:13.692Z,33.47
2018-11-27T01:32:41.980Z,28.20
2018-11-27T01:35:23.162Z,28.73
2018-11-27T01:37:52.531Z,27.13
2018-11-27T01:40:21.881Z,28.40
2018-11-27T01:42:51.212Z,29.83
2018-11-27T01:45:20.321Z,26.20
2018-11-27T01:47:48.685Z,30.80
2018-11-27T01:50:17.683Z,31.23
2018-11-27T01:52:45.988Z,27.83
2018-11-27T01:55:15.170Z,32.23
2018-11-27T01:57:43.510Z,29.07
2018-11-27T02:00:16.148Z,24.20
2018-11-27T02:02:44.410Z,27.00
2018-11-27T02:05:12.730Z,28.77
2018-11-27T02:07:41.002Z,24.83
2018-11-27T02:10:11.505Z,22.83
2018-11-27T02:12:40.362Z,26.83
2018-11-27T02:15:16.667Z,29.80
2018-11-27T02:17:44.967Z,25.97
2018-11-27T02:20:13.258Z,24.03
2018-11-27T02:22:41.740Z,28.17
2018-11-27T02:25:14.276Z,22.47
2018-11-27T02:27:42.590Z,24.80
2018-11-27T02:30:14.252Z,24.13
2018-11-27T02:32:42.531Z,26.77
2018-11-27T02:35:13.935Z,25.27
2018-11-27T02:37:42.171Z,24.50
2018-11-27T02:40:13.383Z,23.27
2018-11-27T02:42:41.674Z,25.50
2018-11-27T02:45:11.904Z,26.07
2018-11-27T02:47:40.382Z,25.53
2018-11-27T02:50:10.931Z,25.90
2018-11-27T02:52:39.193Z,23.77
2018-11-27T02:55:09.276Z,22.63
2018-11-27T02:57:37.526Z,24.57
2018-11-27T03:00:07.330Z,22.80
2018-11-27T03:02:35.625Z,22.57
2018-11-27T03:05:04.196Z,20.90
2018-11-27T03:10:14.574Z,20.73
2018-11-27T03:12:42.898Z,21.63
2018-11-27T03:15:15.110Z,19.70
2018-11-27T03:17:43.400Z,22.23
2018-11-27T03:20:12.431Z,20.13
2018-11-27T03:22:40.672Z,20.17
2018-11-27T03:25:19.575Z,21.40
2018-11-27T03:27:48.837Z,19.77
2018-11-27T03:30:20.093Z,22.37
2018-11-27T03:32:48.426Z,18.77
2018-11-27T03:35:18.511Z,21.53
2018-11-27T03:37:47.483Z,15.33
2018-11-27T03:40:23.537Z,20.23
2018-11-27T03:42:52.003Z,22.33
2018-11-27T03:45:20.973Z,22.37
2018-11-27T03:47:49.245Z,18.93
2018-11-27T03:50:22.710Z,18.93
2018-11-27T03:52:51.592Z,18.77
2018-11-27T03:55:20.157Z,17.40
2018-11-27T03:57:48.541Z,17.40
2018-11-27T04:00:19.901Z,20.23
2018-11-27T04:02:52.575Z,18.57
2018-11-27T04:05:21.103Z,17.90
2018-11-27T04:07:49.677Z,18.23
2018-11-27T04:10:19.331Z,20.60
2018-11-27T04:12:47.583Z,20.07
2018-11-27T04:15:15.799Z,19.07
2018-11-27T04:17:44.055Z,17.03
2018-11-27T04:20:12.965Z,19.97
2018-11-27T04:22:41.838Z,15.00
2018-11-27T04:25:13.108Z,21.17
2018-11-27T04:27:41.401Z,20.03
2018-11-27T04:30:13.688Z,16.90
2018-11-27T04:32:42.026Z,19.20
2018-11-27T04:35:11.809Z,18.80
2018-11-27T04:37:40.084Z,17.13
2018-11-27T04:40:12.601Z,21.17
2018-11-27T04:42:40.886Z,18.90
2018-11-27T04:45:11.893Z,18.63
2018-11-27T04:47:40.219Z,18.03
2018-11-27T04:50:11.442Z,17.13
2018-11-27T04:52:40.886Z,20.23
2018-11-27T04:55:10.684Z,20.07
2018-11-27T04:57:38.981Z,20.07
2018-11-27T05:00:15.023Z,18.97
2018-11-27T05:02:43.323Z,17.10
2018-11-27T05:05:11.777Z,16.70
2018-11-27T05:07:40.257Z,16.43
2018-11-27T05:10:10.974Z,19.70
2018-11-27T05:12:39.906Z,18.17
2018-11-27T05:15:10.366Z,18.00
2018-11-27T05:17:38.604Z,17.57
2018-11-27T05:20:08.237Z,18.33
2018-11-27T05:22:36.726Z,21.23
2018-11-27T05:25:06.833Z,19.90
2018-11-27T05:27:35.057Z,19.57
2018-11-27T05:30:04.330Z,16.57
2018-11-27T05:32:32.741Z,20.17
2018-11-27T05:35:00.993Z,20.57
2018-11-27T05:37:29.190Z,20.43
2018-11-27T05:39:57.406Z,16.97
2018-11-27T05:42:25.620Z,21.40
2018-11-27T05:44:53.833Z,20.20
2018-11-27T05:47:22.061Z,21.67
2018-11-27T05:49:50.333Z,20.53
2018-11-27T05:52:18.595Z,17.93
2018-11-27T05:54:46.818Z,22.90
2018-11-27T05:57:15.069Z,22.83
2018-11-27T05:59:43.314Z,19.23
2018-11-27T06:02:11.564Z,19.07
2018-11-27T06:04:39.900Z,19.43
2018-11-27T06:07:08.098Z,14.33
2018-11-27T06:09:36.445Z,21.03
2018-11-27T06:12:04.910Z,17.63
2018-11-27T06:14:33.261Z,19.70
2018-11-27T06:17:01.738Z,20.90
2018-11-27T06:22:19.771Z,18.37
2018-11-27T06:24:48.045Z,18.67
2018-11-27T06:27:22.325Z,24.07
2018-11-27T06:29:50.560Z,19.93
2018-11-27T06:32:21.387Z,17.63
2018-11-27T06:34:47.122Z,19.73
2018-11-27T06:37:15.408Z,21.37
2018-11-27T06:39:43.675Z,18.63
2018-11-27T06:42:11.984Z,19.63
2018-11-27T06:44:40.226Z,19.40
2018-11-27T06:47:08.482Z,18.00
2018-11-27T06:49:36.753Z,22.10
2018-11-27T06:52:05.317Z,17.83
2018-11-27T06:54:33.585Z,21.10
2018-11-27T06:57:01.877Z,20.40
2018-11-27T06:59:30.158Z,17.70
2018-11-27T07:01:58.534Z,18.87
2018-11-27T07:04:26.866Z,17.20
2018-11-27T07:06:55.169Z,18.60
2018-11-27T07:09:23.418Z,16.63
2018-11-27T07:11:51.649Z,22.40
2018-11-27T07:14:19.914Z,17.67
2018-11-27T07:16:48.186Z,17.93
2018-11-27T07:19:16.436Z,19.20
2018-11-27T07:21:44.688Z,17.33
2018-11-27T07:24:13.016Z,21.67
2018-11-27T07:26:41.285Z,21.13
2018-11-27T07:29:09.533Z,17.57
2018-11-27T07:31:37.847Z,17.93
2018-11-27T07:34:06.170Z,17.87
2018-11-27T07:36:34.427Z,18.57
2018-11-27T07:39:02.682Z,18.67
2018-11-27T07:41:30.957Z,22.40
2018-11-27T07:43:59.248Z,19.33
2018-11-27T07:46:27.555Z,17.00
2018-11-27T07:48:55.823Z,21.47
2018-11-27T07:51:24.086Z,19.70
2018-11-27T07:53:52.390Z,16.47
2018-11-27T07:56:20.681Z,20.97
2018-11-27T07:58:48.950Z,17.43
2018-11-27T08:01:17.216Z,18.83
2018-11-27T08:03:45.487Z,22.57
2018-11-27T08:06:13.798Z,15.00
2018-11-27T08:08:42.078Z,19.30
2018-11-27T08:11:10.345Z,17.97
2018-11-27T08:13:38.593Z,18.00
2018-11-27T08:16:06.859Z,21.43
2018-11-27T08:18:35.098Z,16.07
2018-11-27T08:21:03.733Z,21.30
2018-11-27T08:23:32.013Z,16.47
2018-11-27T08:26:00.851Z,17.37
2018-11-27T08:28:29.115Z,17.37
2018-11-27T08:30:57.358Z,16.57
2018-11-27T08:33:25.741Z,20.03
2018-11-27T08:35:54.000Z,19.33
2018-11-27T08:38:22.252Z,15.93
2018-11-27T08:40:50.527Z,15.13
2018-11-27T08:43:18.818Z,18.70
2018-11-27T08:45:47.089Z,19.87
2018-11-27T08:48:15.430Z,18.13
2018-11-27T08:50:43.744Z,22.57
2018-11-27T08:53:11.961Z,16.03
2018-11-27T08:55:41.359Z,19.53
2018-11-27T08:58:13.431Z,15.33
2018-11-27T09:00:41.696Z,16.67
2018-11-27T09:03:10.079Z,15.37
2018-11-27T09:05:38.404Z,18.67
2018-11-27T09:08:06.958Z,19.07
2018-11-27T09:10:35.767Z,17.23
2018-11-27T09:13:04.144Z,17.00
2018-11-27T09:15:32.417Z,13.63
2018-11-27T09:18:11.302Z,12.47
2018-11-27T09:20:39.597Z,15.37
2018-11-27T09:23:07.888Z,15.17
2018-11-27T09:25:36.127Z,15.13
2018-11-27T09:28:04.464Z,16.93
2018-11-27T09:30:32.754Z,16.60
2018-11-27T09:33:01.034Z,16.40
2018-11-27T09:35:29.330Z,17.30
2018-11-27T09:37:57.575Z,16.13
2018-11-27T09:40:25.857Z,16.93
2018-11-27T09:42:54.173Z,16.50
2018-11-27T09:45:23.729Z,16.27
2018-11-27T09:47:53.158Z,14.23
2018-11-27T09:50:21.411Z,14.90
2018-11-27T09:52:49.726Z,16.07
2018-11-27T09:55:22.058Z,16.97
2018-11-27T09:57:50.342Z,16.47
2018-11-27T10:00:24.274Z,16.10
2018-11-27T10:02:54.849Z,18.20
2018-11-27T10:05:23.178Z,16.63
2018-11-27T10:07:51.620Z,15.43
2018-11-27T10:10:21.988Z,16.57
2018-11-27T10:15:26.600Z,16.47
2018-11-27T10:17:56.750Z,16.17
2018-11-27T10:20:26.224Z,16.53
2018-11-27T10:22:54.472Z,17.60
2018-11-27T10:25:22.771Z,16.87
2018-11-27T10:27:51.557Z,17.57
2018-11-27T10:30:23.138Z,15.40
2018-11-27T10:32:52.431Z,13.50
2018-11-27T10:35:22.026Z,14.40
2018-11-27T10:37:50.283Z,19.33
2018-11-27T10:40:18.570Z,13.63
2018-11-27T10:42:46.891Z,13.67
2018-11-27T10:45:16.228Z,16.50
2018-11-27T10:47:45.247Z,17.90
2018-11-27T10:50:14.455Z,16.10
2018-11-27T10:52:45.506Z,14.60
2018-11-27T10:55:14.916Z,14.83
2018-11-27T10:57:43.304Z,16.30
2018-11-27T11:00:19.969Z,15.73
2018-11-27T11:02:53.903Z,16.60
2018-11-27T11:05:30.396Z,15.53
2018-11-27T11:07:58.805Z,14.43
2018-11-27T11:10:27.209Z,15.43
2018-11-27T11:12:55.558Z,14.67
2018-11-27T11:15:23.873Z,15.47
2018-11-27T11:17:52.224Z,14.03
2018-11-27T11:20:21.137Z,15.63
2018-11-27T11:22:49.458Z,13.57
2018-11-27T11:25:20.968Z,15.43
2018-11-27T11:27:53.082Z,14.83
2018-11-27T11:30:22.316Z,12.87
2018-11-27T11:32:50.611Z,15.63
2018-11-27T11:35:19.390Z,16.30
2018-11-27T11:37:47.831Z,18.23
2018-11-27T11:40:20.186Z,16.20
2018-11-27T11:42:49.305Z,12.43
2018-11-27T11:45:17.667Z,16.67
2018-11-27T11:47:46.052Z,12.60
2018-11-27T11:50:17.507Z,13.03
2018-11-27T11:52:47.152Z,12.90
2018-11-27T11:55:16.403Z,12.37
2018-11-27T11:57:45.141Z,12.20
2018-11-27T12:00:15.962Z,13.53
2018-11-27T12:02:44.248Z,13.57
2018-11-27T12:05:12.690Z,14.30
2018-11-27T12:07:41.103Z,12.70
2018-11-27T12:10:13.849Z,16.37
2018-11-27T12:12:42.950Z,14.40
2018-11-27T12:15:12.534Z,15.33
2018-11-27T12:17:41.439Z,13.23
2018-11-27T12:20:11.944Z,13.10
2018-11-27T12:22:41.106Z,12.47
2018-11-27T12:25:10.895Z,9.77
2018-11-27T12:30:43.062Z,13.07
2018-11-27T12:33:11.423Z,11.67
2018-11-27T12:35:39.903Z,11.07
2018-11-27T12:38:08.193Z,10.43
2018-11-27T12:40:36.496Z,12.77
2018-11-27T12:43:04.943Z,10.80
2018-11-27T12:45:33.723Z,13.00
2018-11-27T12:48:03.287Z,12.07
2018-11-27T12:50:35.871Z,10.63
2018-11-27T12:53:04.356Z,14.10
2018-11-27T12:55:32.669Z,13.23
2018-11-27T12:58:00.984Z,11.53
2018-11-27T13:00:29.298Z,11.33
2018-11-27T13:02:57.621Z,11.60
2018-11-27T13:05:27.349Z,9.57
2018-11-27T13:08:00.739Z,12.23
2018-11-27T13:10:29.039Z,13.30
2018-11-27T13:12:57.314Z,11.03
2018-11-27T13:15:25.690Z,13.63
2018-11-27T13:17:54.268Z,12.63
2018-11-27T13:20:22.631Z,11.63
2018-11-27T13:22:51.410Z,10.43
2018-11-27T13:25:23.250Z,14.63
2018-11-27T13:27:53.327Z,11.57
2018-11-27T13:30:25.372Z,13.17
2018-11-27T13:32:55.646Z,10.80
2018-11-27T13:35:23.923Z,11.60
2018-11-27T13:37:53.161Z,11.37
2018-11-27T13:40:21.786Z,12.17
2018-11-27T13:42:50.569Z,13.47
2018-11-27T13:45:18.840Z,12.70
2018-11-27T13:47:47.069Z,14.00
2018-11-27T13:50:16.428Z,14.77
2018-11-27T13:52:44.695Z,13.37
2018-11-27T13:55:17.291Z,14.10
2018-11-27T13:57:45.668Z,13.03
2018-11-27T14:00:15.938Z,13.27
2018-11-27T14:02:46.067Z,15.73
2018-11-27T14:05:15.939Z,12.83
2018-11-27T14:07:44.190Z,13.80
2018-11-27T14:10:12.731Z,20.47
2018-11-27T14:12:41.010Z,16.03
2018-11-27T14:15:24.305Z,12.97
2018-11-27T14:17:52.720Z,13.70
2018-11-27T14:20:21.071Z,15.40
2018-11-27T14:22:50.254Z,12.87
2018-11-27T14:25:18.619Z,16.63
2018-11-27T14:27:49.115Z,13.23
2018-11-27T14:30:19.601Z,11.50
2018-11-27T14:32:48.098Z,14.00
2018-11-27T14:35:17.322Z,12.77
2018-11-27T14:37:46.447Z,14.73
2018-11-27T14:40:17.856Z,13.43
2018-11-27T14:42:46.271Z,13.37
2018-11-27T14:45:16.561Z,12.30
2018-11-27T14:47:46.133Z,12.10
2018-11-27T14:50:14.508Z,12.57
2018-11-27T14:52:42.847Z,16.80
2018-11-27T14:55:13.939Z,14.93
2018-11-27T14:57:42.294Z,11.93
2018-11-27T15:00:13.050Z,14.30
2018-11-27T15:02:41.391Z,9.17
2018-11-27T15:05:42.518Z,14.17
2018-11-27T15:08:13.225Z,14.73
2018-11-27T15:10:41.565Z,14.47
2018-11-27T15:13:10.931Z,12.93
2018-11-27T15:15:39.393Z,12.57
2018-11-27T15:18:08.169Z,12.47
2018-11-27T15:20:36.478Z,15.60
2018-11-27T15:23:04.851Z,15.47
2018-11-27T15:25:33.213Z,18.10
2018-11-27T15:28:01.546Z,17.17
2018-11-27T15:30:33.557Z,13.87
2018-11-27T15:33:01.803Z,13.27
2018-11-27T15:35:30.099Z,13.60
2018-11-27T15:37:58.365Z,12.20
2018-11-27T15:40:27.917Z,13.67
2018-11-27T15:42:56.155Z,16.10
2018-11-27T15:45:25.711Z,15.00
2018-11-27T15:47:53.955Z,14.73
2018-11-27T15:50:22.246Z,13.47
2018-11-27T15:52:50.591Z,14.20
2018-11-27T15:55:22.666Z,14.17
2018-11-27T15:57:52.375Z,14.83
2018-11-27T16:00:21.047Z,14.10
2018-11-27T16:02:49.306Z,13.77
2018-11-27T16:05:17.820Z,18.57
2018-11-27T16:07:46.081Z,17.13
2018-11-27T16:10:16.424Z,13.00
2018-11-27T16:12:44.664Z,14.47
2018-11-27T16:15:14.006Z,13.63
2018-11-27T16:17:42.411Z,17.83
2018-11-27T16:20:15.116Z,14.67
2018-11-27T16:22:44.417Z,12.63
2018-11-27T16:25:13.702Z,15.83
2018-11-27T16:27:42.031Z,13.87
2018-11-27T16:30:14.508Z,13.10
2018-11-27T16:32:42.799Z,15.53
2018-11-27T16:35:12.007Z,13.27
2018-11-27T16:37:40.662Z,13.93
2018-11-27T16:40:12.643Z,14.07
2018-11-27T16:42:41.058Z,13.97
2018-11-27T16:45:11.591Z,14.80
2018-11-27T16:47:39.954Z,23.17
2018-11-27T16:50:09.755Z,13.90
2018-11-27T16:52:38.210Z,14.43
2018-11-27T16:55:07.601Z,15.17
2018-11-27T16:57:35.850Z,13.67
2018-11-27T17:00:09.001Z,12.47
2018-11-27T17:02:37.295Z,11.87
2018-11-27T17:05:06.140Z,15.70
2018-11-27T17:07:34.452Z,12.30
2018-11-27T17:10:02.792Z,11.77
2018-11-27T17:12:31.078Z,15.00
2018-11-27T17:14:59.380Z,13.03
2018-11-27T17:17:27.613Z,14.20
2018-11-27T17:19:55.833Z,15.03
2018-11-27T17:22:24.403Z,16.73
2018-11-27T17:24:52.682Z,16.20
2018-11-27T17:27:20.962Z,14.83
2018-11-27T17:29:49.239Z,18.20
2018-11-27T17:34:59.153Z,16.37
2018-11-27T17:37:27.500Z,18.53
2018-11-27T17:39:55.900Z,19.17
2018-11-27T17:42:24.249Z,17.80
2018-11-27T17:44:52.596Z,14.13
2018-11-27T17:47:20.949Z,21.67
2018-11-27T17:49:49.337Z,21.23
2018-11-27T17:52:17.792Z,19.17
2018-11-27T17:54:46.487Z,17.97
2018-11-27T17:57:14.881Z,22.70
2018-11-27T17:59:43.321Z,20.53
2018-11-27T18:02:11.756Z,20.80
2018-11-27T18:04:40.071Z,16.67
2018-11-27T18:07:08.472Z,18.60
2018-11-27T18:09:36.904Z,19.77
2018-11-27T18:12:05.364Z,20.73
2018-11-27T18:14:33.740Z,20.23
2018-11-27T18:17:02.070Z,18.73
2018-11-27T18:19:30.383Z,18.00
2018-11-27T18:21:58.761Z,22.00
2018-11-27T18:24:27.169Z,18.60
2018-11-27T18:26:55.467Z,21.70
2018-11-27T18:29:23.832Z,19.93
2018-11-27T18:31:52.179Z,27.80
2018-11-27T18:34:20.659Z,20.57
2018-11-27T18:36:49.014Z,23.60
2018-11-27T18:39:17.375Z,24.27
2018-11-27T18:41:45.737Z,23.70
2018-11-27T18:44:14.091Z,24.37
2018-11-27T18:46:42.421Z,22.53
2018-11-27T18:49:10.985Z,20.40
2018-11-27T18:51:39.459Z,19.30
2018-11-27T18:54:08.002Z,22.33
2018-11-27T18:56:36.312Z,21.10
2018-11-27T18:59:04.834Z,18.80
2018-11-27T19:01:33.107Z,23.30
2018-11-27T19:04:01.420Z,20.77
2018-11-27T19:06:29.782Z,28.10
2018-11-27T19:08:58.202Z,26.80
2018-11-27T19:11:26.496Z,23.30
2018-11-27T19:13:54.881Z,23.37
2018-11-27T19:16:23.465Z,21.60
2018-11-27T19:18:51.799Z,20.90
2018-11-27T19:21:20.108Z,23.00
2018-11-27T19:23:48.436Z,22.43
2018-11-27T19:26:16.762Z,20.93
2018-11-27T19:28:45.129Z,25.77
2018-11-27T19:31:13.438Z,22.47
2018-11-27T19:33:41.745Z,23.30
2018-11-27T19:36:10.023Z,21.03
2018-11-27T19:38:38.354Z,24.90
2018-11-27T19:41:06.601Z,23.40
2018-11-27T19:43:35.255Z,25.97
2018-11-27T19:46:03.619Z,24.60
2018-11-27T19:48:46.957Z,23.77
2018-11-27T19:51:15.377Z,25.07
2018-11-27T19:53:43.983Z,26.60
2018-11-27T19:56:12.222Z,24.70
2018-11-27T19:58:40.610Z,24.03
2018-11-27T20:01:08.974Z,21.90
2018-11-27T20:03:38.153Z,26.67
2018-11-27T20:06:06.420Z,29.00
2018-11-27T20:08:34.678Z,29.03
2018-11-27T20:11:02.995Z,25.70
2018-11-27T20:13:31.482Z,26.73
2018-11-27T20:16:00.032Z,24.30
2018-11-27T20:18:28.294Z,25.50
2018-11-27T20:20:56.822Z,25.47
2018-11-27T20:23:25.065Z,24.20
2018-11-27T20:25:53.401Z,21.67
2018-11-27T20:28:21.657Z,29.90
2018-11-27T20:30:49.977Z,28.03
2018-11-27T20:33:18.274Z,27.47
2018-11-27T20:35:46.560Z,32.70
2018-11-27T20:38:14.799Z,27.23
2018-11-27T20:40:43.142Z,30.37
2018-11-27T20:43:11.415Z,25.87
2018-11-27T20:45:39.697Z,28.23
2018-11-27T20:48:12.249Z,26.17
2018-11-27T20:50:40.532Z,23.47
2018-11-27T20:53:09.154Z,24.30
2018-11-27T20:55:37.465Z,27.23
2018-11-27T20:58:05.974Z,27.10
2018-11-27T21:00:37.563Z,32.17
2018-11-27T21:03:07.050Z,32.53
2018-11-27T21:05:35.342Z,23.80
2018-11-27T21:08:03.627Z,24.13
2018-11-27T21:10:31.883Z,28.93
2018-11-27T21:13:00.099Z,25.60
2018-11-27T21:15:28.339Z,29.33
2018-11-27T21:17:56.568Z,31.73
2018-11-27T21:20:24.813Z,34.13
2018-11-27T21:22:53.073Z,32.93
2018-11-27T21:25:24.403Z,25.97
2018-11-27T21:27:54.275Z,23.50
2018-11-27T21:30:22.518Z,29.03
2018-11-27T21:32:50.764Z,23.30
2018-11-27T21:35:18.989Z,28.57
2018-11-27T21:37:47.297Z,29.07
2018-11-27T21:40:16.601Z,34.20
2018-11-27T21:42:45.187Z,31.60
2018-11-27T21:45:19.999Z,29.67
2018-11-27T21:47:50.450Z,29.83
2018-11-27T21:52:59.014Z,33.80
2018-11-27T21:55:27.352Z,29.23
2018-11-27T21:57:55.575Z,32.27
2018-11-27T22:00:24.845Z,30.23
2018-11-27T22:02:53.513Z,27.97
2018-11-27T22:05:23.834Z,28.27
2018-11-27T22:07:54.381Z,30.60
2018-11-27T22:10:23.688Z,26.60
2018-11-27T22:12:55.025Z,25.53
2018-11-27T22:15:32.475Z,39.63
2018-11-27T22:18:00.893Z,31.53
2018-11-27T22:20:33.163Z,28.43
2018-11-27T22:23:01.447Z,21.73
2018-11-27T22:25:29.737Z,26.77
2018-11-27T22:27:57.997Z,28.13
2018-11-27T22:30:26.618Z,27.83
2018-11-27T22:32:58.499Z,27.33
2018-11-27T22:35:26.801Z,25.77
2018-11-27T22:37:55.224Z,26.90
2018-11-27T22:40:24.598Z,29.07
2018-11-27T22:42:55.044Z,30.77
2018-11-27T22:45:32.027Z,26.10
2018-11-27T22:48:00.322Z,27.77
2018-11-27T22:50:28.598Z,30.40
2018-11-27T22:52:56.873Z,30.63
2018-11-27T22:55:25.153Z,24.77
2018-11-27T22:57:53.551Z,23.00
2018-11-27T23:00:29.188Z,26.33
2018-11-27T23:02:57.752Z,25.13
2018-11-27T23:05:26.023Z,26.63
2018-11-27T23:07:54.288Z,27.60
2018-11-27T23:10:22.629Z,34.53
2018-11-27T23:12:50.954Z,29.63
2018-11-27T23:15:20.710Z,26.77
2018-11-27T23:17:48.986Z,26.00
2018-11-27T23:20:18.341Z,29.17
2018-11-27T23:22:46.762Z,26.97
2018-11-27T23:25:16.444Z,27.40
2018-11-27T23:27:44.734Z,28.10
2018-11-27T23:30:22.721Z,32.47
2018-11-27T23:32:51.089Z,35.23
2018-11-27T23:35:20.256Z,29.03
2018-11-27T23:37:48.563Z,29.03
2018-11-27T23:40:18.788Z,33.47
2018-11-27T23:42:47.480Z,29.57
2018-11-27T23:45:27.628Z,26.80
2018-11-27T23:47:55.890Z,28.53
2018-11-27T23:50:24.192Z,30.30
2018-11-27T23:52:52.650Z,29.07
2018-11-27T23:55:21.060Z,31.50
2018-11-27T23:57:49.499Z,27.60
